Terminal Aerodrome Forecast
Issued by NWS

Home | Current Version | Previous Version | Text Only | Print | Product List | Glossary On
Versions: 1 2 3 4 5 6 7 8 9 10 11 12
000
FTUS43 KDTX 301100
TAFDET
TAF
KDET 301120Z 3012/0112 34008KT 6SM -DZ BR BKN008 OVC012
     FM301400 35009KT P6SM OVC015
     FM302300 01005KT P6SM OVC018
     FM010800 VRB03KT 4SM BR BKN006=

USA.gov is the U.S. government's official web portal to all federal, state and local government web resources and services.